createdAt,value
2022-11-03T00:01:37.804Z,6.50
2022-11-03T00:04:07.208Z,5.83
2022-11-03T00:06:36.325Z,6.10
2022-11-03T00:09:07.513Z,5.50
2022-11-03T00:11:36.853Z,5.40
2022-11-03T00:14:06.381Z,5.53
2022-11-03T00:16:35.139Z,5.90
2022-11-03T00:19:03.845Z,6.23
2022-11-03T00:21:32.555Z,5.77
2022-11-03T00:24:02.544Z,5.77
2022-11-03T00:26:34.238Z,5.60
2022-11-03T00:29:03.988Z,5.60
2022-11-03T00:31:33.836Z,5.57
2022-11-03T00:34:03.157Z,5.30
2022-11-03T00:36:33.240Z,4.80
2022-11-03T00:39:01.988Z,5.00
2022-11-03T00:41:31.961Z,4.80
2022-11-03T00:44:00.849Z,4.80
2022-11-03T00:46:30.446Z,5.17
2022-11-03T00:48:59.168Z,4.30
2022-11-03T00:51:30.099Z,5.10
2022-11-03T00:54:00.201Z,4.03
2022-11-03T00:56:30.465Z,4.23
2022-11-03T00:59:01.536Z,4.30
2022-11-03T01:01:32.322Z,4.40
2022-11-03T01:04:18.519Z,4.77
2022-11-03T01:06:51.814Z,4.73
2022-11-03T01:09:21.545Z,4.17
2022-11-03T01:11:54.832Z,4.63
2022-11-03T01:14:25.786Z,4.67
2022-11-03T01:16:54.472Z,4.87
2022-11-03T01:19:23.768Z,4.40
2022-11-03T01:21:52.659Z,3.93
2022-11-03T01:24:21.556Z,4.33
2022-11-03T01:26:50.767Z,4.40
2022-11-03T01:29:19.882Z,4.43
2022-11-03T01:31:50.435Z,4.90
2022-11-03T01:34:20.542Z,7.20
2022-11-03T01:36:49.456Z,5.17
2022-11-03T01:39:19.082Z,5.83
2022-11-03T01:41:49.287Z,4.83
2022-11-03T01:44:36.350Z,4.50
2022-11-03T01:47:12.246Z,4.77
2022-11-03T01:49:44.508Z,4.70
2022-11-03T01:52:16.985Z,5.23
2022-11-03T01:54:47.786Z,4.40
2022-11-03T01:57:18.790Z,4.87
2022-11-03T01:59:48.694Z,4.60
2022-11-03T02:02:27.149Z,4.97
2022-11-03T02:04:57.362Z,4.23
2022-11-03T02:07:29.510Z,4.50
2022-11-03T02:09:58.093Z,4.33
2022-11-03T02:12:27.094Z,4.93
2022-11-03T02:14:57.680Z,4.70
2022-11-03T02:17:28.978Z,4.33
2022-11-03T02:19:59.720Z,4.27
2022-11-03T02:22:41.176Z,4.53
2022-11-03T02:25:17.045Z,4.30
2022-11-03T02:27:47.187Z,5.03
2022-11-03T02:30:15.978Z,4.63
2022-11-03T02:32:52.562Z,4.60
2022-11-03T02:35:23.898Z,4.93
2022-11-03T02:37:55.951Z,5.03
2022-11-03T02:40:27.900Z,4.80
2022-11-03T02:42:58.424Z,4.90
2022-11-03T02:45:27.870Z,4.87
2022-11-03T02:47:59.788Z,4.70
2022-11-03T02:50:29.015Z,4.40
2022-11-03T02:52:58.452Z,5.03
2022-11-03T02:55:34.761Z,5.33
2022-11-03T02:58:09.411Z,4.83
2022-11-03T03:00:44.411Z,4.87
2022-11-03T03:03:16.518Z,4.70
2022-11-03T03:05:46.530Z,5.70
2022-11-03T03:08:15.458Z,4.83
2022-11-03T03:10:45.795Z,4.73
2022-11-03T03:13:18.713Z,4.97
2022-11-03T03:15:48.781Z,5.90
2022-11-03T03:18:24.696Z,5.07
2022-11-03T03:20:57.377Z,4.97
2022-11-03T03:23:28.171Z,7.00
2022-11-03T03:26:00.284Z,10.63
2022-11-03T03:28:34.706Z,6.47
2022-11-03T03:31:06.590Z,5.67
2022-11-03T03:33:35.746Z,5.10
2022-11-03T03:36:06.114Z,5.63
2022-11-03T03:38:38.250Z,6.10
2022-11-03T03:41:10.864Z,5.00
2022-11-03T03:43:41.161Z,5.70
2022-11-03T03:46:11.660Z,5.77
2022-11-03T03:48:40.596Z,5.37
2022-11-03T03:51:09.438Z,5.17
2022-11-03T03:53:37.927Z,5.13
2022-11-03T03:56:06.957Z,5.27
2022-11-03T03:58:35.392Z,5.53
2022-11-03T04:01:05.293Z,5.27
2022-11-03T04:03:33.768Z,4.80
2022-11-03T04:06:02.555Z,5.03
2022-11-03T04:08:31.051Z,4.93
2022-11-03T04:11:16.875Z,6.60
2022-11-03T04:14:02.816Z,7.77
2022-11-03T04:16:50.033Z,8.33
2022-11-03T04:19:35.859Z,9.27
2022-11-03T04:22:21.366Z,10.30
2022-11-03T04:24:51.081Z,9.80
2022-11-03T04:27:33.191Z,10.40
2022-11-03T04:30:07.828Z,10.90
2022-11-03T04:32:38.324Z,9.90
2022-11-03T04:35:16.295Z,10.77
2022-11-03T04:37:47.386Z,11.33
2022-11-03T04:40:17.512Z,10.50
2022-11-03T04:42:47.471Z,10.87
2022-11-03T04:45:23.714Z,9.97
2022-11-03T04:47:54.100Z,10.07
2022-11-03T04:50:23.902Z,9.10
2022-11-03T04:52:55.382Z,9.53
2022-11-03T04:55:24.023Z,9.53
2022-11-03T04:57:56.790Z,9.97
2022-11-03T05:00:25.751Z,8.33
2022-11-03T05:02:56.370Z,8.37
2022-11-03T05:05:26.323Z,8.67
2022-11-03T05:07:56.305Z,8.77
2022-11-03T05:10:27.417Z,9.27
2022-11-03T05:12:56.629Z,10.10
2022-11-03T05:15:33.473Z,9.17
2022-11-03T05:18:09.661Z,9.97
2022-11-03T05:20:49.599Z,9.90
2022-11-03T05:23:20.058Z,9.30
2022-11-03T05:25:50.466Z,9.47
2022-11-03T05:28:25.284Z,8.60
2022-11-03T05:30:54.770Z,9.67
2022-11-03T05:33:28.462Z,9.03
2022-11-03T05:35:59.564Z,8.07
2022-11-03T05:38:30.861Z,7.43
2022-11-03T05:40:59.990Z,7.17
2022-11-03T05:43:29.499Z,7.60
2022-11-03T05:46:00.008Z,8.07
2022-11-03T05:48:33.198Z,7.33
2022-11-03T05:51:02.583Z,6.57
2022-11-03T05:53:32.457Z,7.57
2022-11-03T05:56:03.327Z,7.90
2022-11-03T05:58:35.067Z,7.20
2022-11-03T06:01:07.937Z,7.53
2022-11-03T06:03:37.978Z,7.50
2022-11-03T06:06:14.864Z,7.70
2022-11-03T06:08:46.009Z,8.20
2022-11-03T06:11:28.862Z,7.23
2022-11-03T06:13:58.854Z,7.30
2022-11-03T06:16:38.644Z,7.33
2022-11-03T06:19:19.902Z,6.70
2022-11-03T06:21:49.173Z,6.80
2022-11-03T06:24:19.325Z,6.60
2022-11-03T06:26:48.260Z,7.27
2022-11-03T06:29:18.423Z,7.43
2022-11-03T06:31:49.252Z,7.10
2022-11-03T06:34:40.112Z,7.60
2022-11-03T06:37:21.491Z,8.00
2022-11-03T06:39:50.594Z,7.80
2022-11-03T06:42:23.151Z,7.27
2022-11-03T06:44:53.689Z,8.40
2022-11-03T06:47:24.273Z,8.27
2022-11-03T06:49:55.832Z,8.67
2022-11-03T06:52:30.301Z,8.23
2022-11-03T06:55:16.811Z,8.70
2022-11-03T06:57:47.760Z,8.73
2022-11-03T07:00:39.907Z,7.97
2022-11-03T07:03:12.020Z,8.97
2022-11-03T07:05:42.266Z,9.10
2022-11-03T07:08:23.655Z,9.03
2022-11-03T07:10:52.891Z,9.20
2022-11-03T07:13:25.017Z,10.13
2022-11-03T07:15:54.278Z,9.30
2022-11-03T07:18:26.612Z,10.03
2022-11-03T07:20:57.061Z,10.80
2022-11-03T07:23:29.543Z,11.60
2022-11-03T07:26:00.402Z,10.80
2022-11-03T07:28:33.696Z,10.07
2022-11-03T07:31:03.174Z,11.37
2022-11-03T07:33:32.571Z,10.83
2022-11-03T07:36:19.471Z,12.33
2022-11-03T07:38:54.864Z,13.00
2022-11-03T07:41:29.621Z,11.80
2022-11-03T07:44:02.140Z,11.37
2022-11-03T07:46:30.645Z,10.60
2022-11-03T07:49:01.266Z,10.83
2022-11-03T07:51:32.591Z,12.10
2022-11-03T07:54:04.969Z,10.33
2022-11-03T07:56:36.443Z,11.83
2022-11-03T07:59:14.325Z,11.03
2022-11-03T08:01:44.356Z,12.10
2022-11-03T08:04:14.622Z,11.13
2022-11-03T08:06:44.498Z,11.77
2022-11-03T08:09:12.994Z,10.00
2022-11-03T08:11:41.557Z,12.60
2022-11-03T08:14:10.560Z,11.80
2022-11-03T08:16:39.376Z,12.47
2022-11-03T08:19:08.153Z,13.47
2022-11-03T08:21:36.694Z,10.90
2022-11-03T08:24:07.129Z,11.43
2022-11-03T08:26:35.666Z,12.77
2022-11-03T08:29:04.218Z,13.37
2022-11-03T08:31:32.759Z,13.00
2022-11-03T08:34:01.187Z,13.00
2022-11-03T08:36:29.790Z,12.07
2022-11-03T08:38:58.335Z,13.10
2022-11-03T08:41:28.211Z,11.67
2022-11-03T08:43:56.675Z,11.70
2022-11-03T08:46:25.133Z,11.07
2022-11-03T08:48:53.683Z,13.10
2022-11-03T08:51:22.149Z,12.00
2022-11-03T08:53:53.846Z,13.53
2022-11-03T08:56:23.103Z,13.50
2022-11-03T08:58:53.572Z,11.33
2022-11-03T09:01:22.830Z,11.17
2022-11-03T09:03:52.014Z,11.40
2022-11-03T09:06:20.979Z,11.50
2022-11-03T09:11:38.900Z,11.77
2022-11-03T09:14:09.346Z,13.43
2022-11-03T09:16:38.797Z,13.17
2022-11-03T09:19:07.618Z,10.03
2022-11-03T09:21:36.865Z,10.33
2022-11-03T09:24:07.475Z,10.73
2022-11-03T09:26:36.505Z,11.57
2022-11-03T09:29:05.364Z,12.53
2022-11-03T09:31:35.681Z,12.60
2022-11-03T09:34:04.771Z,13.23
2022-11-03T09:36:33.639Z,11.60
2022-11-03T09:39:02.869Z,10.93
2022-11-03T09:41:53.960Z,12.50
2022-11-03T09:44:21.722Z,11.13
2022-11-03T09:46:56.937Z,10.93
2022-11-03T09:49:28.179Z,10.00
2022-11-03T09:51:57.107Z,10.83
2022-11-03T09:54:27.754Z,11.83
2022-11-03T09:56:59.098Z,9.00
2022-11-03T09:59:28.290Z,10.70
2022-11-03T10:01:58.753Z,9.47
2022-11-03T10:04:29.121Z,10.30
2022-11-03T10:06:58.380Z,13.77
2022-11-03T10:09:28.715Z,11.57
2022-11-03T10:11:57.747Z,11.07
2022-11-03T10:14:26.546Z,10.70
2022-11-03T10:17:00.550Z,11.33
2022-11-03T10:19:29.981Z,12.63
2022-11-03T10:21:59.519Z,12.37
2022-11-03T10:24:28.607Z,11.30
2022-11-03T10:26:57.801Z,10.53
2022-11-03T10:29:27.683Z,12.63
2022-11-03T10:31:59.245Z,12.80
2022-11-03T10:34:35.158Z,9.43
2022-11-03T10:37:21.002Z,11.30
2022-11-03T10:39:51.742Z,10.83
2022-11-03T10:42:22.581Z,14.33
2022-11-03T10:44:53.577Z,10.40
2022-11-03T10:47:26.850Z,10.33
2022-11-03T10:49:56.380Z,10.53
2022-11-03T10:52:27.150Z,11.03
2022-11-03T10:54:58.032Z,10.87
2022-11-03T10:57:28.640Z,10.20
2022-11-03T10:59:59.249Z,9.60
2022-11-03T11:02:32.394Z,10.37
2022-11-03T11:05:02.794Z,11.00
2022-11-03T11:07:35.320Z,8.73
2022-11-03T11:10:09.692Z,9.43
2022-11-03T11:12:38.429Z,10.40
2022-11-03T11:15:36.690Z,9.30
2022-11-03T11:18:06.588Z,9.87
2022-11-03T11:20:41.389Z,9.50
2022-11-03T11:23:49.967Z,10.40
2022-11-03T11:26:42.545Z,10.53
2022-11-03T11:29:44.618Z,8.97
2022-11-03T11:32:53.078Z,11.73
2022-11-03T11:36:04.389Z,8.80
2022-11-03T11:39:09.185Z,8.37
2022-11-03T11:42:09.885Z,11.40
2022-11-03T11:45:02.865Z,11.20
2022-11-03T11:47:36.744Z,10.73
2022-11-03T11:50:31.969Z,11.43
2022-11-03T11:53:11.214Z,10.27
2022-11-03T11:55:46.983Z,11.97
2022-11-03T11:58:19.703Z,11.00
2022-11-03T12:00:56.207Z,10.77
2022-11-03T12:03:28.826Z,12.33
2022-11-03T12:05:57.290Z,10.20
2022-11-03T12:08:29.721Z,10.83
2022-11-03T12:11:01.726Z,9.13
2022-11-03T12:13:48.666Z,10.87
2022-11-03T12:16:31.280Z,9.80
2022-11-03T12:19:37.266Z,9.87
2022-11-03T12:22:06.631Z,9.37
2022-11-03T12:24:40.928Z,9.50
2022-11-03T12:27:44.172Z,9.93
2022-11-03T12:30:18.726Z,9.93
2022-11-03T12:32:47.836Z,10.77
2022-11-03T12:35:17.036Z,11.53
2022-11-03T12:37:46.195Z,10.80
2022-11-03T12:40:15.084Z,12.77
2022-11-03T12:42:44.915Z,10.70
2022-11-03T12:45:14.625Z,10.30
2022-11-03T12:47:43.091Z,11.30
2022-11-03T12:50:11.565Z,9.27
2022-11-03T12:52:40.049Z,10.63
2022-11-03T12:55:09.243Z,10.80
2022-11-03T12:57:37.743Z,10.67
2022-11-03T13:00:09.303Z,10.97
2022-11-03T13:02:37.992Z,12.20
2022-11-03T13:05:07.800Z,10.23
2022-11-03T13:07:36.264Z,10.37
2022-11-03T13:10:05.294Z,11.23
2022-11-03T13:12:32.870Z,10.53
2022-11-03T13:15:02.889Z,10.50
2022-11-03T13:17:51.973Z,11.13
2022-11-03T13:20:22.365Z,12.33
2022-11-03T13:22:51.246Z,10.37
2022-11-03T13:25:19.878Z,10.77
2022-11-03T13:27:53.787Z,10.67
2022-11-03T13:30:22.510Z,9.87
2022-11-03T13:32:53.021Z,12.30
2022-11-03T13:35:21.905Z,10.07
2022-11-03T13:37:50.371Z,9.40
2022-11-03T13:40:43.025Z,10.37
2022-11-03T13:43:07.834Z,10.60
2022-11-03T13:45:36.547Z,8.63
2022-11-03T13:50:56.664Z,9.70
2022-11-03T13:56:20.717Z,10.83
2022-11-03T14:01:39.216Z,11.13
2022-11-03T14:06:59.128Z,9.23
2022-11-03T14:09:27.696Z,11.37
2022-11-03T14:12:13.872Z,11.47
2022-11-03T14:14:42.387Z,10.17
2022-11-03T14:17:11.134Z,10.97
2022-11-03T14:19:45.941Z,10.23
2022-11-03T14:22:17.325Z,10.47
2022-11-03T14:24:45.849Z,10.90
2022-11-03T14:27:15.784Z,10.97
2022-11-03T14:29:44.531Z,10.63
2022-11-03T14:32:13.370Z,13.83
2022-11-03T14:34:43.705Z,12.77
2022-11-03T14:37:13.297Z,12.93
2022-11-03T14:39:41.971Z,13.27
2022-11-03T14:42:15.184Z,10.30
2022-11-03T14:44:45.282Z,11.90
2022-11-03T14:47:15.599Z,10.10
2022-11-03T14:49:46.106Z,11.70
2022-11-03T14:52:15.753Z,9.50
2022-11-03T14:54:44.643Z,13.67
2022-11-03T14:57:13.148Z,11.93
2022-11-03T14:59:41.821Z,9.43
2022-11-03T15:02:11.055Z,9.93
2022-11-03T15:04:39.645Z,11.50
2022-11-03T15:07:09.406Z,11.00
2022-11-03T15:09:37.938Z,10.80
2022-11-03T15:12:06.594Z,13.07
2022-11-03T15:14:35.035Z,13.90
2022-11-03T15:17:03.548Z,12.23
2022-11-03T15:19:32.068Z,11.07
2022-11-03T15:22:00.482Z,10.30
2022-11-03T15:27:18.612Z,9.93
2022-11-03T15:29:47.217Z,12.00
2022-11-03T15:32:15.698Z,11.97
2022-11-03T15:34:44.107Z,9.57
2022-11-03T15:37:12.619Z,9.50
2022-11-03T15:39:42.676Z,9.03
2022-11-03T15:42:11.325Z,10.30
2022-11-03T15:44:40.147Z,10.03
2022-11-03T15:47:08.663Z,8.23
2022-11-03T15:49:37.458Z,9.57
2022-11-03T15:52:06.512Z,11.07
2022-11-03T15:54:39.780Z,11.87
2022-11-03T15:59:45.541Z,10.93
2022-11-03T16:02:39.596Z,11.70
2022-11-03T16:05:02.871Z,10.40
2022-11-03T16:07:32.207Z,12.67
2022-11-03T16:10:00.751Z,8.67
2022-11-03T16:12:30.559Z,12.07
2022-11-03T16:14:59.186Z,11.43
2022-11-03T16:17:27.936Z,12.50
2022-11-03T16:19:56.660Z,12.20
2022-11-03T16:22:25.433Z,11.57
2022-11-03T16:24:54.095Z,12.73
2022-11-03T16:27:22.803Z,10.30
2022-11-03T16:29:57.942Z,12.60
2022-11-03T16:32:26.719Z,13.30
2022-11-03T16:34:55.295Z,11.63
2022-11-03T16:37:27.518Z,12.27
2022-11-03T16:39:56.022Z,12.80
2022-11-03T16:42:24.539Z,13.23
2022-11-03T16:44:55.495Z,12.80
2022-11-03T16:47:26.941Z,11.37
2022-11-03T16:49:55.488Z,11.77
2022-11-03T16:52:24.015Z,14.20
2022-11-03T16:54:52.646Z,14.93
2022-11-03T16:57:21.160Z,14.17
2022-11-03T16:59:49.890Z,14.93
2022-11-03T17:02:19.768Z,11.30
2022-11-03T17:04:48.276Z,12.57
2022-11-03T17:07:16.735Z,9.83
2022-11-03T17:09:45.324Z,12.80
2022-11-03T17:12:13.838Z,12.23
2022-11-03T17:14:42.493Z,13.63
2022-11-03T17:17:11.045Z,13.80
2022-11-03T17:19:41.556Z,12.90
2022-11-03T17:22:10.723Z,13.17
2022-11-03T17:24:39.279Z,12.50
2022-11-03T17:27:13.220Z,13.33
2022-11-03T17:29:43.321Z,9.33
2022-11-03T17:32:15.185Z,9.37
2022-11-03T17:34:45.025Z,11.23
2022-11-03T17:37:13.504Z,10.83
2022-11-03T17:39:42.025Z,10.00
2022-11-03T17:42:16.829Z,11.90
2022-11-03T17:44:47.271Z,10.60
2022-11-03T17:47:16.067Z,12.07
2022-11-03T17:49:46.967Z,12.10
2022-11-03T17:52:19.112Z,10.07
2022-11-03T17:54:50.768Z,9.87
2022-11-03T17:57:20.933Z,11.70
2022-11-03T17:59:51.197Z,13.07
2022-11-03T18:02:21.599Z,14.63
2022-11-03T18:04:52.201Z,13.93
2022-11-03T18:07:24.348Z,12.10
2022-11-03T18:09:53.366Z,13.07
2022-11-03T18:12:42.337Z,13.43
2022-11-03T18:15:15.766Z,13.53
2022-11-03T18:17:44.351Z,13.00
2022-11-03T18:20:18.104Z,14.13
2022-11-03T18:22:46.986Z,13.33
2022-11-03T18:25:16.188Z,12.60
2022-11-03T18:27:44.721Z,11.57
2022-11-03T18:30:16.657Z,11.70
2022-11-03T18:32:46.346Z,11.17
2022-11-03T18:35:18.974Z,10.60
2022-11-03T18:37:47.588Z,11.17
2022-11-03T18:40:16.632Z,10.00
2022-11-03T18:42:45.174Z,11.67
2022-11-03T18:45:15.966Z,11.43
2022-11-03T18:47:44.666Z,10.87
2022-11-03T18:50:17.743Z,11.47
2022-11-03T18:52:48.584Z,11.83
2022-11-03T18:55:17.595Z,12.30
2022-11-03T18:57:46.296Z,12.13
2022-11-03T19:00:18.998Z,11.50
2022-11-03T19:02:51.436Z,11.13
2022-11-03T19:05:21.357Z,12.00
2022-11-03T19:07:51.234Z,11.90
2022-11-03T19:10:22.159Z,11.23
2022-11-03T19:12:50.667Z,9.53
2022-11-03T19:15:21.680Z,9.70
2022-11-03T19:17:50.905Z,11.23
2022-11-03T19:20:20.727Z,8.70
2022-11-03T19:22:49.090Z,11.93
2022-11-03T19:25:18.698Z,10.83
2022-11-03T19:27:48.276Z,10.07
2022-11-03T19:30:19.356Z,12.27
2022-11-03T19:32:49.895Z,11.77
2022-11-03T19:35:21.842Z,10.90
2022-11-03T19:37:55.322Z,11.13
2022-11-03T19:40:23.810Z,11.63
2022-11-03T19:42:51.373Z,12.37
2022-11-03T19:45:22.969Z,11.03
2022-11-03T19:48:22.565Z,13.13
2022-11-03T19:50:45.067Z,12.20
2022-11-03T19:53:20.506Z,10.53
2022-11-03T19:55:49.225Z,11.60
2022-11-03T19:58:20.788Z,10.30
2022-11-03T20:00:50.460Z,12.00
2022-11-03T20:03:22.050Z,11.43
2022-11-03T20:05:54.599Z,10.30
2022-11-03T20:08:24.646Z,10.97
2022-11-03T20:10:53.483Z,12.00
2022-11-03T20:13:23.707Z,11.67
2022-11-03T20:15:58.912Z,10.80
2022-11-03T20:18:29.572Z,10.80
2022-11-03T20:20:59.589Z,11.20
2022-11-03T20:23:29.872Z,10.97
2022-11-03T20:25:58.500Z,10.70
2022-11-03T20:28:28.641Z,11.20
2022-11-03T20:30:57.966Z,8.13
2022-11-03T20:33:26.658Z,9.87
2022-11-03T20:35:55.419Z,11.13
2022-11-03T20:38:26.324Z,9.57
2022-11-03T20:40:58.619Z,11.13
2022-11-03T20:43:31.499Z,8.87
2022-11-03T20:46:00.366Z,9.67
2022-11-03T20:48:29.932Z,10.93
2022-11-03T20:50:58.460Z,9.37
2022-11-03T20:53:28.351Z,10.20
2022-11-03T20:55:56.818Z,8.00
2022-11-03T20:58:25.277Z,8.57
2022-11-03T21:00:54.833Z,8.87
2022-11-03T21:03:44.960Z,9.03
2022-11-03T21:06:16.548Z,9.70
2022-11-03T21:08:47.457Z,9.20
2022-11-03T21:11:27.610Z,9.70
2022-11-03T21:13:58.361Z,9.10
2022-11-03T21:16:45.560Z,10.00
2022-11-03T21:19:34.218Z,9.03
2022-11-03T21:22:02.958Z,9.27
2022-11-03T21:24:32.757Z,8.57
2022-11-03T21:27:01.179Z,7.27
2022-11-03T21:32:18.648Z,9.53
2022-11-03T21:34:47.036Z,9.27
2022-11-03T21:37:16.068Z,10.67
2022-11-03T21:39:45.852Z,7.90
2022-11-03T21:42:33.054Z,8.73
2022-11-03T21:45:01.745Z,9.80
2022-11-03T21:47:30.222Z,9.77
2022-11-03T21:49:57.806Z,9.33
2022-11-03T21:52:32.546Z,9.23
2022-11-03T21:55:03.412Z,9.20
2022-11-03T21:57:32.591Z,11.23
2022-11-03T22:00:01.028Z,9.53
2022-11-03T22:02:30.391Z,9.07
2022-11-03T22:04:59.029Z,9.03
2022-11-03T22:07:27.523Z,8.33
2022-11-03T22:09:55.943Z,8.43
2022-11-03T22:12:26.351Z,11.40
2022-11-03T22:15:23.620Z,10.70
2022-11-03T22:17:52.094Z,9.23
2022-11-03T22:20:38.111Z,8.67
2022-11-03T22:23:23.926Z,10.23
2022-11-03T22:26:11.328Z,8.60
2022-11-03T22:28:41.095Z,8.67
2022-11-03T22:31:27.670Z,8.97
2022-11-03T22:34:14.040Z,9.83
2022-11-03T22:36:42.508Z,8.10
2022-11-03T22:39:31.258Z,9.23
2022-11-03T22:42:22.808Z,10.33
2022-11-03T22:45:10.396Z,10.67
2022-11-03T22:47:38.925Z,10.70
2022-11-03T22:50:07.848Z,8.83
2022-11-03T22:52:36.303Z,8.60
2022-11-03T22:55:04.898Z,10.03
2022-11-03T22:57:33.273Z,9.40
2022-11-03T23:00:05.610Z,10.23
2022-11-03T23:02:34.098Z,10.77
2022-11-03T23:05:03.081Z,10.30
2022-11-03T23:07:35.828Z,9.13
2022-11-03T23:10:08.187Z,9.73
2022-11-03T23:12:36.783Z,9.50
2022-11-03T23:15:25.746Z,10.40
2022-11-03T23:18:11.741Z,9.90
2022-11-03T23:21:12.163Z,12.83
2022-11-03T23:23:58.577Z,12.17
2022-11-03T23:26:27.773Z,11.93
2022-11-03T23:28:56.192Z,12.50
2022-11-03T23:31:26.146Z,11.67
2022-11-03T23:33:55.059Z,11.83
2022-11-03T23:36:23.481Z,12.33
2022-11-03T23:38:52.063Z,11.53
2022-11-03T23:41:20.953Z,13.00
2022-11-03T23:43:49.480Z,12.87
2022-11-03T23:46:37.068Z,12.13
2022-11-03T23:49:07.380Z,12.17
2022-11-03T23:51:36.943Z,12.30
2022-11-03T23:54:07.642Z,11.83
2022-11-03T23:56:55.264Z,11.97
2022-11-03T23:59:24.305Z,11.20
